sensor_id;sensor_type;location;lat;lon;timestamp;temperature;humidity
65598;SHT31;52267;51.984;20.956;2023-11-21T00:00:35;1.05;92.58
65598;SHT31;52267;51.984;20.956;2023-11-21T00:03:22;1.06;92.58
65598;SHT31;52267;51.984;20.956;2023-11-21T00:05:50;0.96;92.71
65598;SHT31;52267;51.984;20.956;2023-11-21T00:08:17;0.91;92.85
65598;SHT31;52267;51.984;20.956;2023-11-21T00:10:44;0.86;92.98
65598;SHT31;52267;51.984;20.956;2023-11-21T00:13:11;0.87;92.98
65598;SHT31;52267;51.984;20.956;2023-11-21T00:15:39;0.90;92.91
65598;SHT31;52267;51.984;20.956;2023-11-21T00:18:06;0.89;92.96
65598;SHT31;52267;51.984;20.956;2023-11-21T00:20:34;0.86;93.00
65598;SHT31;52267;51.984;20.956;2023-11-21T00:23:00;0.85;93.01
65598;SHT31;52267;51.984;20.956;2023-11-21T00:25:28;0.87;93.00
65598;SHT31;52267;51.984;20.956;2023-11-21T00:27:55;0.89;93.01
65598;SHT31;52267;51.984;20.956;2023-11-21T00:30:22;0.88;93.01
65598;SHT31;52267;51.984;20.956;2023-11-21T00:32:49;0.93;93.00
65598;SHT31;52267;51.984;20.956;2023-11-21T00:35:16;1.01;92.99
65598;SHT31;52267;51.984;20.956;2023-11-21T00:37:43;1.03;92.93
65598;SHT31;52267;51.984;20.956;2023-11-21T00:40:10;1.04;92.91
65598;SHT31;52267;51.984;20.956;2023-11-21T00:42:38;1.08;92.90
65598;SHT31;52267;51.984;20.956;2023-11-21T00:45:06;1.10;92.91
65598;SHT31;52267;51.984;20.956;2023-11-21T00:47:34;1.15;92.90
65598;SHT31;52267;51.984;20.956;2023-11-21T00:50:01;1.15;92.83
65598;SHT31;52267;51.984;20.956;2023-11-21T00:52:28;1.07;92.80
65598;SHT31;52267;51.984;20.956;2023-11-21T00:54:55;1.10;92.78
65598;SHT31;52267;51.984;20.956;2023-11-21T00:57:22;1.13;92.71
65598;SHT31;52267;51.984;20.956;2023-11-21T00:59:48;1.09;92.73
65598;SHT31;52267;51.984;20.956;2023-11-21T01:02:16;1.01;92.79
65598;SHT31;52267;51.984;20.956;2023-11-21T01:04:43;0.96;92.78
65598;SHT31;52267;51.984;20.956;2023-11-21T01:07:10;0.96;92.77
65598;SHT31;52267;51.984;20.956;2023-11-21T01:09:37;0.98;92.74
65598;SHT31;52267;51.984;20.956;2023-11-21T01:12:04;1.04;92.73
65598;SHT31;52267;51.984;20.956;2023-11-21T01:14:31;1.10;92.70
65598;SHT31;52267;51.984;20.956;2023-11-21T01:16:58;1.14;92.65
65598;SHT31;52267;51.984;20.956;2023-11-21T01:19:25;1.18;92.60
65598;SHT31;52267;51.984;20.956;2023-11-21T01:21:52;1.18;92.54
65598;SHT31;52267;51.984;20.956;2023-11-21T01:24:19;1.19;92.50
65598;SHT31;52267;51.984;20.956;2023-11-21T01:26:46;1.18;92.47
65598;SHT31;52267;51.984;20.956;2023-11-21T01:29:13;1.12;92.41
65598;SHT31;52267;51.984;20.956;2023-11-21T01:31:41;1.16;92.46
65598;SHT31;52267;51.984;20.956;2023-11-21T01:34:08;1.20;92.42
65598;SHT31;52267;51.984;20.956;2023-11-21T01:36:35;1.21;92.39
65598;SHT31;52267;51.984;20.956;2023-11-21T01:39:02;1.18;92.39
65598;SHT31;52267;51.984;20.956;2023-11-21T01:41:34;1.19;92.36
65598;SHT31;52267;51.984;20.956;2023-11-21T01:44:01;1.23;92.36
65598;SHT31;52267;51.984;20.956;2023-11-21T01:46:29;1.25;92.30
65598;SHT31;52267;51.984;20.956;2023-11-21T01:48:56;1.25;92.29
65598;SHT31;52267;51.984;20.956;2023-11-21T01:51:24;1.27;92.26
65598;SHT31;52267;51.984;20.956;2023-11-21T01:53:53;1.25;92.20
65598;SHT31;52267;51.984;20.956;2023-11-21T01:56:20;1.15;92.13
65598;SHT31;52267;51.984;20.956;2023-11-21T01:58:47;1.17;92.19
65598;SHT31;52267;51.984;20.956;2023-11-21T02:01:14;1.18;92.17
65598;SHT31;52267;51.984;20.956;2023-11-21T02:03:41;1.10;92.10
65598;SHT31;52267;51.984;20.956;2023-11-21T02:06:08;1.09;92.12
65598;SHT31;52267;51.984;20.956;2023-11-21T02:08:35;1.10;92.11
65598;SHT31;52267;51.984;20.956;2023-11-21T02:11:04;1.10;92.11
65598;SHT31;52267;51.984;20.956;2023-11-21T02:13:32;1.11;92.11
65598;SHT31;52267;51.984;20.956;2023-11-21T02:15:59;1.04;92.08
65598;SHT31;52267;51.984;20.956;2023-11-21T02:18:26;0.92;92.10
65598;SHT31;52267;51.984;20.956;2023-11-21T02:20:55;0.95;92.16
65598;SHT31;52267;51.984;20.956;2023-11-21T02:23:23;0.99;92.13
65598;SHT31;52267;51.984;20.956;2023-11-21T02:25:55;0.95;92.09
65598;SHT31;52267;51.984;20.956;2023-11-21T02:28:22;0.90;92.09
65598;SHT31;52267;51.984;20.956;2023-11-21T02:30:52;0.86;92.10
65598;SHT31;52267;51.984;20.956;2023-11-21T02:33:24;0.85;92.10
65598;SHT31;52267;51.984;20.956;2023-11-21T02:35:51;0.79;92.10
65598;SHT31;52267;51.984;20.956;2023-11-21T02:38:21;0.75;92.10
65598;SHT31;52267;51.984;20.956;2023-11-21T02:40:48;0.71;92.13
65598;SHT31;52267;51.984;20.956;2023-11-21T02:43:15;0.74;92.16
65598;SHT31;52267;51.984;20.956;2023-11-21T02:45:42;0.79;92.11
65598;SHT31;52267;51.984;20.956;2023-11-21T02:48:10;0.83;92.12
65598;SHT31;52267;51.984;20.956;2023-11-21T02:50:37;0.87;92.11
65598;SHT31;52267;51.984;20.956;2023-11-21T02:53:04;0.90;92.09
65598;SHT31;52267;51.984;20.956;2023-11-21T02:55:34;0.90;92.04
65598;SHT31;52267;51.984;20.956;2023-11-21T02:58:01;0.90;92.05
65598;SHT31;52267;51.984;20.956;2023-11-21T03:00:30;0.78;91.97
65598;SHT31;52267;51.984;20.956;2023-11-21T03:02:57;0.77;92.00
65598;SHT31;52267;51.984;20.956;2023-11-21T03:05:24;0.83;92.02
65598;SHT31;52267;51.984;20.956;2023-11-21T03:07:51;0.84;92.00
65598;SHT31;52267;51.984;20.956;2023-11-21T03:10:18;0.87;92.00
65598;SHT31;52267;51.984;20.956;2023-11-21T03:12:45;0.87;91.99
65598;SHT31;52267;51.984;20.956;2023-11-21T03:15:12;0.84;91.96
65598;SHT31;52267;51.984;20.956;2023-11-21T03:17:40;0.88;91.98
65598;SHT31;52267;51.984;20.956;2023-11-21T03:20:07;0.88;91.92
65598;SHT31;52267;51.984;20.956;2023-11-21T03:22:37;0.87;91.93
65598;SHT31;52267;51.984;20.956;2023-11-21T03:25:05;0.87;91.90
65598;SHT31;52267;51.984;20.956;2023-11-21T03:27:36;0.83;91.78
65598;SHT31;52267;51.984;20.956;2023-11-21T03:30:05;0.78;91.79
65598;SHT31;52267;51.984;20.956;2023-11-21T03:32:35;0.73;91.76
65598;SHT31;52267;51.984;20.956;2023-11-21T03:35:02;0.61;91.70
65598;SHT31;52267;51.984;20.956;2023-11-21T03:37:30;0.60;91.76
65598;SHT31;52267;51.984;20.956;2023-11-21T03:39:57;0.63;91.79
65598;SHT31;52267;51.984;20.956;2023-11-21T03:42:24;0.67;91.78
65598;SHT31;52267;51.984;20.956;2023-11-21T03:44:54;0.68;91.72
65598;SHT31;52267;51.984;20.956;2023-11-21T03:47:21;0.68;91.69
65598;SHT31;52267;51.984;20.956;2023-11-21T03:49:48;0.68;91.67
65598;SHT31;52267;51.984;20.956;2023-11-21T03:52:15;0.64;91.60
65598;SHT31;52267;51.984;20.956;2023-11-21T03:54:42;0.57;91.59
65598;SHT31;52267;51.984;20.956;2023-11-21T03:57:10;0.57;91.59
65598;SHT31;52267;51.984;20.956;2023-11-21T03:59:40;0.55;91.57
65598;SHT31;52267;51.984;20.956;2023-11-21T04:02:08;0.59;91.56
65598;SHT31;52267;51.984;20.956;2023-11-21T04:04:36;0.61;91.53
65598;SHT31;52267;51.984;20.956;2023-11-21T04:07:03;0.60;91.49
65598;SHT31;52267;51.984;20.956;2023-11-21T04:09:30;0.60;91.49
65598;SHT31;52267;51.984;20.956;2023-11-21T04:11:58;0.61;91.48
65598;SHT31;52267;51.984;20.956;2023-11-21T04:14:25;0.56;91.49
65598;SHT31;52267;51.984;20.956;2023-11-21T04:16:52;0.58;91.50
65598;SHT31;52267;51.984;20.956;2023-11-21T04:19:20;0.63;91.51
65598;SHT31;52267;51.984;20.956;2023-11-21T04:21:47;0.65;91.50
65598;SHT31;52267;51.984;20.956;2023-11-21T04:24:14;0.66;91.50
65598;SHT31;52267;51.984;20.956;2023-11-21T04:26:41;0.60;91.43
65598;SHT31;52267;51.984;20.956;2023-11-21T04:29:08;0.50;91.43
65598;SHT31;52267;51.984;20.956;2023-11-21T04:31:35;0.53;91.49
65598;SHT31;52267;51.984;20.956;2023-11-21T04:34:02;0.56;91.50
65598;SHT31;52267;51.984;20.956;2023-11-21T04:36:30;0.60;91.50
65598;SHT31;52267;51.984;20.956;2023-11-21T04:38:57;0.65;91.50
65598;SHT31;52267;51.984;20.956;2023-11-21T04:41:25;0.66;91.48
65598;SHT31;52267;51.984;20.956;2023-11-21T04:43:52;0.66;91.40
65598;SHT31;52267;51.984;20.956;2023-11-21T04:46:19;0.64;91.40
65598;SHT31;52267;51.984;20.956;2023-11-21T04:48:46;0.59;91.40
65598;SHT31;52267;51.984;20.956;2023-11-21T04:51:13;0.51;91.37
65598;SHT31;52267;51.984;20.956;2023-11-21T04:53:40;0.52;91.40
65598;SHT31;52267;51.984;20.956;2023-11-21T04:56:07;0.52;91.37
65598;SHT31;52267;51.984;20.956;2023-11-21T04:58:34;0.54;91.38
65598;SHT31;52267;51.984;20.956;2023-11-21T05:01:02;0.54;91.34
65598;SHT31;52267;51.984;20.956;2023-11-21T05:03:29;0.48;91.23
65598;SHT31;52267;51.984;20.956;2023-11-21T05:05:56;0.40;91.21
65598;SHT31;52267;51.984;20.956;2023-11-21T05:08:23;0.34;91.14
65598;SHT31;52267;51.984;20.956;2023-11-21T05:10:50;0.31;91.20
65598;SHT31;52267;51.984;20.956;2023-11-21T05:13:18;0.29;91.20
65598;SHT31;52267;51.984;20.956;2023-11-21T05:15:47;0.17;91.21
65598;SHT31;52267;51.984;20.956;2023-11-21T05:18:14;0.10;91.30
65598;SHT31;52267;51.984;20.956;2023-11-21T05:20:41;0.14;91.31
65598;SHT31;52267;51.984;20.956;2023-11-21T05:23:08;0.20;91.33
65598;SHT31;52267;51.984;20.956;2023-11-21T05:25:35;0.22;91.33
65598;SHT31;52267;51.984;20.956;2023-11-21T05:28:03;0.26;91.30
65598;SHT31;52267;51.984;20.956;2023-11-21T05:30:30;0.29;91.31
65598;SHT31;52267;51.984;20.956;2023-11-21T05:32:57;0.28;91.30
65598;SHT31;52267;51.984;20.956;2023-11-21T05:35:24;0.24;91.29
65598;SHT31;52267;51.984;20.956;2023-11-21T05:37:51;0.17;91.27
65598;SHT31;52267;51.984;20.956;2023-11-21T05:40:18;0.17;91.30
65598;SHT31;52267;51.984;20.956;2023-11-21T05:42:45;0.20;91.31
65598;SHT31;52267;51.984;20.956;2023-11-21T05:45:12;0.16;91.30
65598;SHT31;52267;51.984;20.956;2023-11-21T05:47:40;0.14;91.30
65598;SHT31;52267;51.984;20.956;2023-11-21T05:50:09;0.21;91.30
65598;SHT31;52267;51.984;20.956;2023-11-21T05:52:41;0.25;91.31
65598;SHT31;52267;51.984;20.956;2023-11-21T05:55:12;0.22;91.30
65598;SHT31;52267;51.984;20.956;2023-11-21T05:57:40;0.23;91.31
65598;SHT31;52267;51.984;20.956;2023-11-21T06:00:10;0.26;91.32
65598;SHT31;52267;51.984;20.956;2023-11-21T06:02:53;0.26;91.30
65598;SHT31;52267;51.984;20.956;2023-11-21T06:05:24;0.28;91.30
65598;SHT31;52267;51.984;20.956;2023-11-21T06:07:53;0.31;91.25
65598;SHT31;52267;51.984;20.956;2023-11-21T06:10:22;0.29;91.25
65598;SHT31;52267;51.984;20.956;2023-11-21T06:12:50;0.30;91.20
65598;SHT31;52267;51.984;20.956;2023-11-21T06:15:17;0.29;91.18
65598;SHT31;52267;51.984;20.956;2023-11-21T06:17:49;0.22;91.13
65598;SHT31;52267;51.984;20.956;2023-11-21T06:20:19;0.16;91.15
65598;SHT31;52267;51.984;20.956;2023-11-21T06:22:47;0.15;91.11
65598;SHT31;52267;51.984;20.956;2023-11-21T06:25:19;0.18;91.11
65598;SHT31;52267;51.984;20.956;2023-11-21T06:27:47;0.20;91.11
65598;SHT31;52267;51.984;20.956;2023-11-21T06:30:15;0.20;91.10
65598;SHT31;52267;51.984;20.956;2023-11-21T06:32:42;0.21;91.08
65598;SHT31;52267;51.984;20.956;2023-11-21T06:35:12;0.19;91.10
65598;SHT31;52267;51.984;20.956;2023-11-21T06:37:39;0.22;91.07
65598;SHT31;52267;51.984;20.956;2023-11-21T06:40:07;0.22;91.06
65598;SHT31;52267;51.984;20.956;2023-11-21T06:42:36;0.22;91.01
65598;SHT31;52267;51.984;20.956;2023-11-21T06:45:04;0.24;91.00
65598;SHT31;52267;51.984;20.956;2023-11-21T06:47:32;0.25;91.00
65598;SHT31;52267;51.984;20.956;2023-11-21T06:50:00;0.27;91.00
65598;SHT31;52267;51.984;20.956;2023-11-21T06:52:27;0.31;91.00
65598;SHT31;52267;51.984;20.956;2023-11-21T06:54:54;0.34;91.00
65598;SHT31;52267;51.984;20.956;2023-11-21T06:57:24;0.32;91.00
65598;SHT31;52267;51.984;20.956;2023-11-21T06:59:52;0.31;90.99
65598;SHT31;52267;51.984;20.956;2023-11-21T07:02:19;0.31;91.00
65598;SHT31;52267;51.984;20.956;2023-11-21T07:04:46;0.32;91.00
65598;SHT31;52267;51.984;20.956;2023-11-21T07:07:13;0.34;91.00
65598;SHT31;52267;51.984;20.956;2023-11-21T07:09:40;0.38;91.00
65598;SHT31;52267;51.984;20.956;2023-11-21T07:12:07;0.39;90.99
65598;SHT31;52267;51.984;20.956;2023-11-21T07:14:34;0.42;90.97
65598;SHT31;52267;51.984;20.956;2023-11-21T07:17:02;0.41;90.91
65598;SHT31;52267;51.984;20.956;2023-11-21T07:19:29;0.41;90.91
65598;SHT31;52267;51.984;20.956;2023-11-21T07:21:57;0.39;90.87
65598;SHT31;52267;51.984;20.956;2023-11-21T07:24:24;0.34;90.80
65598;SHT31;52267;51.984;20.956;2023-11-21T07:26:51;0.32;90.82
65598;SHT31;52267;51.984;20.956;2023-11-21T07:29:23;0.31;90.83
65598;SHT31;52267;51.984;20.956;2023-11-21T07:31:53;0.24;90.75
65598;SHT31;52267;51.984;20.956;2023-11-21T07:34:20;0.29;90.80
65598;SHT31;52267;51.984;20.956;2023-11-21T07:36:48;0.34;90.81
65598;SHT31;52267;51.984;20.956;2023-11-21T07:39:15;0.35;90.80
65598;SHT31;52267;51.984;20.956;2023-11-21T07:41:42;0.39;90.80
65598;SHT31;52267;51.984;20.956;2023-11-21T07:44:15;0.43;90.80
65598;SHT31;52267;51.984;20.956;2023-11-21T07:46:46;0.44;90.75
65598;SHT31;52267;51.984;20.956;2023-11-21T07:49:13;0.47;90.77
65598;SHT31;52267;51.984;20.956;2023-11-21T07:51:43;0.50;90.75
65598;SHT31;52267;51.984;20.956;2023-11-21T07:54:10;0.52;90.74
65598;SHT31;52267;51.984;20.956;2023-11-21T07:56:38;0.54;90.69
65598;SHT31;52267;51.984;20.956;2023-11-21T07:59:05;0.51;90.61
65598;SHT31;52267;51.984;20.956;2023-11-21T08:01:32;0.49;90.63
65598;SHT31;52267;51.984;20.956;2023-11-21T08:03:59;0.47;90.62
65598;SHT31;52267;51.984;20.956;2023-11-21T08:06:29;0.45;90.57
65598;SHT31;52267;51.984;20.956;2023-11-21T08:08:57;0.40;90.51
65598;SHT31;52267;51.984;20.956;2023-11-21T08:11:24;0.41;90.56
65598;SHT31;52267;51.984;20.956;2023-11-21T08:13:53;0.42;90.54
65598;SHT31;52267;51.984;20.956;2023-11-21T08:16:21;0.42;90.53
65598;SHT31;52267;51.984;20.956;2023-11-21T08:18:48;0.35;90.48
65598;SHT31;52267;51.984;20.956;2023-11-21T08:21:15;0.37;90.54
65598;SHT31;52267;51.984;20.956;2023-11-21T08:23:42;0.39;90.53
65598;SHT31;52267;51.984;20.956;2023-11-21T08:26:09;0.43;90.51
65598;SHT31;52267;51.984;20.956;2023-11-21T08:28:36;0.45;90.50
65598;SHT31;52267;51.984;20.956;2023-11-21T08:31:03;0.48;90.50
65598;SHT31;52267;51.984;20.956;2023-11-21T08:33:31;0.50;90.50
65598;SHT31;52267;51.984;20.956;2023-11-21T08:35:58;0.55;90.48
65598;SHT31;52267;51.984;20.956;2023-11-21T08:38:27;0.58;90.49
65598;SHT31;52267;51.984;20.956;2023-11-21T08:40:55;0.58;90.45
65598;SHT31;52267;51.984;20.956;2023-11-21T08:43:22;0.60;90.43
65598;SHT31;52267;51.984;20.956;2023-11-21T08:45:50;0.64;90.45
65598;SHT31;52267;51.984;20.956;2023-11-21T08:48:18;0.66;90.42
65598;SHT31;52267;51.984;20.956;2023-11-21T08:50:45;0.70;90.42
65598;SHT31;52267;51.984;20.956;2023-11-21T08:53:12;0.70;90.32
65598;SHT31;52267;51.984;20.956;2023-11-21T08:55:39;0.64;90.13
65598;SHT31;52267;51.984;20.956;2023-11-21T08:58:06;0.65;90.24
65598;SHT31;52267;51.984;20.956;2023-11-21T09:00:33;0.69;90.23
65598;SHT31;52267;51.984;20.956;2023-11-21T09:03:01;0.71;90.25
65598;SHT31;52267;51.984;20.956;2023-11-21T09:05:29;0.74;90.29
65598;SHT31;52267;51.984;20.956;2023-11-21T09:07:57;0.78;90.29
65598;SHT31;52267;51.984;20.956;2023-11-21T09:10:24;0.78;90.27
65598;SHT31;52267;51.984;20.956;2023-11-21T09:12:51;0.79;90.22
65598;SHT31;52267;51.984;20.956;2023-11-21T09:15:19;0.80;90.20
65598;SHT31;52267;51.984;20.956;2023-11-21T09:17:47;0.79;90.20
65598;SHT31;52267;51.984;20.956;2023-11-21T09:20:14;0.78;90.18
65598;SHT31;52267;51.984;20.956;2023-11-21T09:22:42;0.78;90.20
65598;SHT31;52267;51.984;20.956;2023-11-21T09:25:11;0.80;90.20
65598;SHT31;52267;51.984;20.956;2023-11-21T09:27:39;0.81;90.20
65598;SHT31;52267;51.984;20.956;2023-11-21T09:30:06;0.80;90.18
65598;SHT31;52267;51.984;20.956;2023-11-21T09:32:40;0.78;90.11
65598;SHT31;52267;51.984;20.956;2023-11-21T09:35:07;0.76;90.10
65598;SHT31;52267;51.984;20.956;2023-11-21T09:37:35;0.76;90.08
65598;SHT31;52267;51.984;20.956;2023-11-21T09:40:02;0.74;90.09
65598;SHT31;52267;51.984;20.956;2023-11-21T09:42:43;0.70;90.09
65598;SHT31;52267;51.984;20.956;2023-11-21T09:45:27;0.62;90.03
65598;SHT31;52267;51.984;20.956;2023-11-21T09:47:57;0.61;90.09
65598;SHT31;52267;51.984;20.956;2023-11-21T09:50:25;0.63;90.09
65598;SHT31;52267;51.984;20.956;2023-11-21T09:53:37;0.64;90.08
65598;SHT31;52267;51.984;20.956;2023-11-21T09:55:54;0.62;90.00
65598;SHT31;52267;51.984;20.956;2023-11-21T09:58:21;0.59;90.00
65598;SHT31;52267;51.984;20.956;2023-11-21T10:00:53;0.60;90.00
65598;SHT31;52267;51.984;20.956;2023-11-21T10:03:23;0.61;90.00
65598;SHT31;52267;51.984;20.956;2023-11-21T10:05:50;0.60;89.96
65598;SHT31;52267;51.984;20.956;2023-11-21T10:08:20;0.61;89.96
65598;SHT31;52267;51.984;20.956;2023-11-21T10:10:51;0.64;89.93
65598;SHT31;52267;51.984;20.956;2023-11-21T10:13:20;0.66;89.99
65598;SHT31;52267;51.984;20.956;2023-11-21T10:15:51;0.71;89.94
65598;SHT31;52267;51.984;20.956;2023-11-21T10:18:19;0.73;89.94
65598;SHT31;52267;51.984;20.956;2023-11-21T10:20:46;0.69;89.80
65598;SHT31;52267;51.984;20.956;2023-11-21T10:23:18;0.74;89.82
65598;SHT31;52267;51.984;20.956;2023-11-21T10:25:46;0.76;89.80
65598;SHT31;52267;51.984;20.956;2023-11-21T10:28:13;0.81;89.81
65598;SHT31;52267;51.984;20.956;2023-11-21T10:30:40;0.86;89.80
65598;SHT31;52267;51.984;20.956;2023-11-21T10:33:07;0.87;89.76
65598;SHT31;52267;51.984;20.956;2023-11-21T10:38:17;0.89;89.70
65598;SHT31;52267;51.984;20.956;2023-11-21T10:40:46;0.92;89.70
65598;SHT31;52267;51.984;20.956;2023-11-21T10:43:14;0.91;89.70
65598;SHT31;52267;51.984;20.956;2023-11-21T10:45:42;0.93;89.74
65598;SHT31;52267;51.984;20.956;2023-11-21T10:48:10;0.90;89.70
65598;SHT31;52267;51.984;20.956;2023-11-21T10:50:43;0.93;89.70
65598;SHT31;52267;51.984;20.956;2023-11-21T10:53:12;0.94;89.67
65598;SHT31;52267;51.984;20.956;2023-11-21T10:55:40;0.95;89.64
65598;SHT31;52267;51.984;20.956;2023-11-21T10:58:07;0.94;89.60
65598;SHT31;52267;51.984;20.956;2023-11-21T11:00:37;0.95;89.59
65598;SHT31;52267;51.984;20.956;2023-11-21T11:03:06;0.89;89.47
65598;SHT31;52267;51.984;20.956;2023-11-21T11:05:41;0.88;89.51
65598;SHT31;52267;51.984;20.956;2023-11-21T11:08:21;0.83;89.40
65598;SHT31;52267;51.984;20.956;2023-11-21T11:10:52;0.75;89.39
65598;SHT31;52267;51.984;20.956;2023-11-21T11:13:20;0.73;89.42
65598;SHT31;52267;51.984;20.956;2023-11-21T11:15:48;0.77;89.43
65598;SHT31;52267;51.984;20.956;2023-11-21T11:18:15;0.80;89.44
65598;SHT31;52267;51.984;20.956;2023-11-21T11:20:43;0.84;89.45
65598;SHT31;52267;51.984;20.956;2023-11-21T11:32:12;0.89;89.31
65598;SHT31;52267;51.984;20.956;2023-11-21T11:35:14;0.90;89.31
65598;SHT31;52267;51.984;20.956;2023-11-21T11:37:51;0.87;89.30
65598;SHT31;52267;51.984;20.956;2023-11-21T11:40:19;0.87;89.30
65598;SHT31;52267;51.984;20.956;2023-11-21T11:42:56;0.90;89.23
65598;SHT31;52267;51.984;20.956;2023-11-21T11:45:32;0.94;89.22
65598;SHT31;52267;51.984;20.956;2023-11-21T11:48:01;0.96;89.21
65598;SHT31;52267;51.984;20.956;2023-11-21T11:50:31;0.99;89.19
65598;SHT31;52267;51.984;20.956;2023-11-21T11:53:20;1.00;89.14
65598;SHT31;52267;51.984;20.956;2023-11-21T11:55:47;1.01;89.10
65598;SHT31;52267;51.984;20.956;2023-11-21T11:58:50;1.01;89.10
65598;SHT31;52267;51.984;20.956;2023-11-21T12:01:21;1.03;89.10
65598;SHT31;52267;51.984;20.956;2023-11-21T12:07:00;1.01;89.12
65598;SHT31;52267;51.984;20.956;2023-11-21T12:09:30;0.98;89.07
65598;SHT31;52267;51.984;20.956;2023-11-21T12:11:58;0.94;89.06
65598;SHT31;52267;51.984;20.956;2023-11-21T12:14:26;0.92;89.05
65598;SHT31;52267;51.984;20.956;2023-11-21T12:16:54;0.91;88.99
65598;SHT31;52267;51.984;20.956;2023-11-21T12:19:22;0.91;89.00
65598;SHT31;52267;51.984;20.956;2023-11-21T12:21:49;0.91;88.97
65598;SHT31;52267;51.984;20.956;2023-11-21T12:24:16;0.90;88.90
65598;SHT31;52267;51.984;20.956;2023-11-21T12:26:43;0.87;88.98
65598;SHT31;52267;51.984;20.956;2023-11-21T12:29:11;0.87;88.98
65598;SHT31;52267;51.984;20.956;2023-11-21T12:31:38;0.87;89.00
65598;SHT31;52267;51.984;20.956;2023-11-21T12:34:06;0.87;88.98
65598;SHT31;52267;51.984;20.956;2023-11-21T12:36:35;0.84;88.92
65598;SHT31;52267;51.984;20.956;2023-11-21T12:39:02;0.83;88.90
65598;SHT31;52267;51.984;20.956;2023-11-21T12:41:30;0.83;88.90
65598;SHT31;52267;51.984;20.956;2023-11-21T12:43:57;0.85;88.87
65598;SHT31;52267;51.984;20.956;2023-11-21T12:46:25;0.85;88.82
65598;SHT31;52267;51.984;20.956;2023-11-21T12:48:56;0.83;88.80
65598;SHT31;52267;51.984;20.956;2023-11-21T12:51:24;0.79;88.79
65598;SHT31;52267;51.984;20.956;2023-11-21T12:53:51;0.74;88.80
65598;SHT31;52267;51.984;20.956;2023-11-21T12:56:21;0.75;88.82
65598;SHT31;52267;51.984;20.956;2023-11-21T12:58:53;0.76;88.80
65598;SHT31;52267;51.984;20.956;2023-11-21T13:01:25;0.76;88.80
65598;SHT31;52267;51.984;20.956;2023-11-21T13:03:56;0.75;88.83
65598;SHT31;52267;51.984;20.956;2023-11-21T13:06:26;0.75;88.83
65598;SHT31;52267;51.984;20.956;2023-11-21T13:08:54;0.69;88.78
65598;SHT31;52267;51.984;20.956;2023-11-21T13:11:23;0.65;88.75
65598;SHT31;52267;51.984;20.956;2023-11-21T13:13:52;0.60;88.79
65598;SHT31;52267;51.984;20.956;2023-11-21T13:16:20;0.55;88.76
65598;SHT31;52267;51.984;20.956;2023-11-21T13:18:47;0.55;88.73
65598;SHT31;52267;51.984;20.956;2023-11-21T13:21:19;0.54;88.70
65598;SHT31;52267;51.984;20.956;2023-11-21T13:23:48;0.51;88.66
65598;SHT31;52267;51.984;20.956;2023-11-21T13:26:17;0.50;88.64
65598;SHT31;52267;51.984;20.956;2023-11-21T13:28:47;0.48;88.61
65598;SHT31;52267;51.984;20.956;2023-11-21T13:31:14;0.47;88.60
65598;SHT31;52267;51.984;20.956;2023-11-21T13:33:57;0.44;88.65
65598;SHT31;52267;51.984;20.956;2023-11-21T13:36:31;0.43;88.70
65598;SHT31;52267;51.984;20.956;2023-11-21T13:39:01;0.36;88.69
65598;SHT31;52267;51.984;20.956;2023-11-21T13:41:34;0.36;88.78
65598;SHT31;52267;51.984;20.956;2023-11-21T13:44:01;0.40;88.80
65598;SHT31;52267;51.984;20.956;2023-11-21T13:46:53;0.41;88.80
65598;SHT31;52267;51.984;20.956;2023-11-21T13:49:20;0.42;88.80
65598;SHT31;52267;51.984;20.956;2023-11-21T13:51:47;0.44;88.80
65598;SHT31;52267;51.984;20.956;2023-11-21T13:54:18;0.44;88.77
65598;SHT31;52267;51.984;20.956;2023-11-21T13:56:46;0.43;88.75
65598;SHT31;52267;51.984;20.956;2023-11-21T13:59:15;0.38;88.71
65598;SHT31;52267;51.984;20.956;2023-11-21T14:01:51;0.34;88.69
65598;SHT31;52267;51.984;20.956;2023-11-21T14:04:22;0.32;88.73
65598;SHT31;52267;51.984;20.956;2023-11-21T14:07:10;0.26;88.70
65598;SHT31;52267;51.984;20.956;2023-11-21T14:09:49;0.26;88.71
65598;SHT31;52267;51.984;20.956;2023-11-21T14:12:16;0.26;88.73
65598;SHT31;52267;51.984;20.956;2023-11-21T14:14:44;0.28;88.76
65598;SHT31;52267;51.984;20.956;2023-11-21T14:17:13;0.31;88.78
65598;SHT31;52267;51.984;20.956;2023-11-21T14:19:40;0.33;88.80
65598;SHT31;52267;51.984;20.956;2023-11-21T14:22:10;0.33;88.80
65598;SHT31;52267;51.984;20.956;2023-11-21T14:24:37;0.34;88.79
65598;SHT31;52267;51.984;20.956;2023-11-21T14:27:10;0.32;88.77
65598;SHT31;52267;51.984;20.956;2023-11-21T14:29:37;0.27;88.76
65598;SHT31;52267;51.984;20.956;2023-11-21T14:32:07;0.27;88.80
65598;SHT31;52267;51.984;20.956;2023-11-21T14:34:34;0.28;88.80
65598;SHT31;52267;51.984;20.956;2023-11-21T14:37:01;0.27;88.81
65598;SHT31;52267;51.984;20.956;2023-11-21T14:39:30;0.25;88.82
65598;SHT31;52267;51.984;20.956;2023-11-21T14:42:01;0.22;88.83
65598;SHT31;52267;51.984;20.956;2023-11-21T14:44:29;0.21;88.81
65598;SHT31;52267;51.984;20.956;2023-11-21T14:47:01;0.20;88.81
65598;SHT31;52267;51.984;20.956;2023-11-21T14:49:33;0.18;88.79
65598;SHT31;52267;51.984;20.956;2023-11-21T14:52:16;0.19;88.80
65598;SHT31;52267;51.984;20.956;2023-11-21T14:55:00;0.16;88.74
65598;SHT31;52267;51.984;20.956;2023-11-21T14:57:46;0.15;88.73
65598;SHT31;52267;51.984;20.956;2023-11-21T15:00:17;0.14;88.71
65598;SHT31;52267;51.984;20.956;2023-11-21T15:03:03;0.15;88.70
65598;SHT31;52267;51.984;20.956;2023-11-21T15:05:31;0.12;88.73
65598;SHT31;52267;51.984;20.956;2023-11-21T15:08:01;0.14;88.76
65598;SHT31;52267;51.984;20.956;2023-11-21T15:10:45;0.14;88.76
65598;SHT31;52267;51.984;20.956;2023-11-21T15:13:14;0.12;88.74
65598;SHT31;52267;51.984;20.956;2023-11-21T15:15:42;0.12;88.77
65598;SHT31;52267;51.984;20.956;2023-11-21T15:18:09;0.12;88.76
65598;SHT31;52267;51.984;20.956;2023-11-21T15:20:41;0.09;88.79
65598;SHT31;52267;51.984;20.956;2023-11-21T15:23:10;0.09;88.79
65598;SHT31;52267;51.984;20.956;2023-11-21T15:25:39;0.08;88.76
65598;SHT31;52267;51.984;20.956;2023-11-21T15:28:06;0.07;88.74
65598;SHT31;52267;51.984;20.956;2023-11-21T15:30:33;0.08;88.77
65598;SHT31;52267;51.984;20.956;2023-11-21T15:33:01;0.07;88.77
65598;SHT31;52267;51.984;20.956;2023-11-21T15:35:30;0.07;88.79
65598;SHT31;52267;51.984;20.956;2023-11-21T15:37:58;0.06;88.80
65598;SHT31;52267;51.984;20.956;2023-11-21T15:40:25;0.08;88.81
65598;SHT31;52267;51.984;20.956;2023-11-21T15:42:53;0.09;88.80
65598;SHT31;52267;51.984;20.956;2023-11-21T15:45:20;0.07;88.80
65598;SHT31;52267;51.984;20.956;2023-11-21T15:47:50;0.07;88.80
65598;SHT31;52267;51.984;20.956;2023-11-21T15:50:20;0.04;88.80
65598;SHT31;52267;51.984;20.956;2023-11-21T15:52:47;0.03;88.82
65598;SHT31;52267;51.984;20.956;2023-11-21T15:55:14;0.05;88.81